Skip Navigation Links
NOAA logo - Click to go to the NOAA homepage
NOAA's National Weather Service
Alaska Aviation Weather Unit
  NWS logo - Click to go to the NWS homepage
Left Navbar Graphic     19 AKDT = 03 GMT

   
NOAA is celebrating 200 years of science, service, and stewardship. Visit the NOAA 200th celebration Web site to learn more.
USA.gov is the U.S. Government's official Web portal to all Federal, state and local government Web resources and services.
Facebook
NWS on Facebook

Important Change Regarding the AAWU Web Presence

 

Over the last several months, the AAWU has been working to navigate its webpages to a nationally supported server. Security, as well as other needs, have necessitated the change.  In the process, we have made an effort to enhance the functionality of our website, as well as some of our products. As of June 20, 2017, aawu.arh.noaa.gov will be discontinued. The new AAWU web address is weather.gov/aawu. It is now live and will run in-parallel with the old site until it is discontinued. Please send any feedback or questions regarding the new webpages to nws.ar.aawu.webauthors@noaa.gov.  Thank you for your patience during this time of transition.
AAWU Home :: Display TAF Add Bookmark
SPECI PAIW 242120Z AUTO 36012KT 1/2SM -SN FG 01/00 A2946 RMK AO2 P0001
     FZRANO $=

METAR PAIW 242158Z AUTO 36008KT 3/4SM -SN BR 01/01 A2945 RMK AO2 SLP973
     P0002 T00110006 FZRANO $=

SPECI PAIW 242225Z AUTO 36008KT 1SM -SN BR 02/01 A2944 RMK AO2 P0001
     FZRANO $=

SPECI PAIW 242230Z AUTO 36008KT 1 1/4SM -SN BR 02/01 A2944 RMK AO2 P0001
     FZRANO $=

METAR PAIW 242258Z AUTO 36008KT 1 1/2SM -SN BR 02/01 A2944 RMK AO2
     SLP969 P0001 T00170006 FZRANO $=

SPECI PAIW 242315Z AUTO 36007KT 2SM -SN BR 02/01 A2944 RMK AO2 P0000
     FZRANO $=

SPECI PAIW 242332Z AUTO 35008KT 1 1/2SM -SN BR 02/01 A2944 RMK AO2
 P0000 FZRANO $=

SPECI PAIW 242353Z AUTO 35008KT 2SM UP BR 02/01 A2944 RMK AO2 UPB45SNE45
     P0000 FZRANO $=

METAR PAIW 242358Z AUTO 34008KT 2 1/2SM UP BR 02/01 A2944 RMK AO2
     UPB45SNE45 SLP968 P0000 60011 T00170006 10017 20000 56010
     FZRANO $=

SPECI PAIW 250017Z AUTO 34007KT 3SM UP BR 02/00 A2944 RMK AO2 P0000
     FZRANO $=

SPECI PAIW 250027Z AUTO 34007KT 2 1/2SM UP BR 02/00 A2944 RMK AO2 P0000
     FZRANO $=

METAR PAIW 250058Z AUTO 33007KT 3SM UP BR 02/01 A2943 RMK AO2 SLP967
     P0000 T00170006 FZRANO $=

SPECI PAIW 250140Z AUTO 32006KT 2SM -SN BR 02/01 A2943 RMK AO2
     UPE0059RAB07E39SNB39 P0000 FZRANO $=

SPECI PAIW 250145Z AUTO 32006KT 1 1/4SM -SN BR 02/01 A2943 RMK AO2
     UPE0059RAB07E39SNB39 P0000 FZRANO $=

SPECI PAIW 250151Z AUTO 32006KT 1SM UP BR 02/01 A2943 RMK AO2
     UPE0059B50RAB07E39SNB39E50 P0000 FZRANO $=

METAR PAIW 250158Z AUTO 32007KT 1SM -RA BR 02/01 A2943 RMK AO2
     UPE0059B50E53RAB07SNB39E50 SLP966 P0000 T00170006 FZRANO
     $=

SPECI PAIW 250251Z AUTO 30005KT 1/4SM FG 02/01 A2943 RMK AO2
     RAE38UPB18E26 P0000 FZRANO $=


NOAA's National Weather Service
Alaska Aviation Weather Unit
6930 Sand Lake Road
Anchorage, AK 99502-1845
Disclaimer
Credits
Glossary
Privacy Policy
About Us
Career Opportunities
Contact AAWU Internet Services Site last modified: April, 17th 2012